Time;durP1;ratioP1;P1;durP2;ratioP2;P2;SDS_P1;SDS_P2;PMS_P1;PMS_P2;Temp;Humidity;BMP_temperature;BMP_pressure;BME280_temperature;BME280_humidity;BME280_pressure;Samples;Min_cycle;Max_cycle;Signal;HPM_P1;HPM_P2
2023/05/23 00:01:41;;;;;;;53.55;34.42;;;18.50;99.90;;;;;;5071924;28;20020;-73
2023/05/23 00:04:08;;;;;;;56.00;37.47;;;18.40;99.90;;;;;;5073690;28;20499;-73
2023/05/23 00:06:37;;;;;;;52.50;35.45;;;18.40;99.90;;;;;;5074019;28;20547;-73
2023/05/23 00:09:03;;;;;;;59.00;36.72;;;18.40;99.90;;;;;;5074894;28;20029;-73
2023/05/23 00:11:29;;;;;;;52.83;33.40;;;18.40;99.90;;;;;;5074870;28;20028;-73
2023/05/23 00:13:59;;;;;;;55.58;36.53;;;18.30;99.90;;;;;;5074648;28;20041;-73
2023/05/23 00:16:25;;;;;;;53.20;34.22;;;18.30;99.90;;;;;;5074997;28;20032;-73
2023/05/23 00:18:52;;;;;;;50.05;33.97;;;18.20;99.90;;;;;;5074836;28;20025;-73
2023/05/23 00:21:19;;;;;;;54.63;33.97;;;18.20;99.90;;;;;;5060666;28;20112;-73
2023/05/23 00:23:44;;;;;;;49.03;31.98;;;18.30;99.90;;;;;;5054526;28;20477;-72
2023/05/23 00:26:10;;;;;;;47.22;32.60;;;18.30;99.90;;;;;;5071439;28;20074;-73
2023/05/23 00:28:37;;;;;;;46.97;30.95;;;18.20;99.90;;;;;;5074138;28;20469;-72
2023/05/23 00:31:03;;;;;;;48.30;31.27;;;18.10;99.90;;;;;;5068905;28;20086;-73
2023/05/23 00:33:31;;;;;;;45.20;29.95;;;18.20;99.90;;;;;;5073877;28;20465;-73
2023/05/23 00:35:58;;;;;;;45.88;30.38;;;18.20;99.90;;;;;;5073942;28;20074;-73
2023/05/23 00:38:23;;;;;;;46.40;28.85;;;18.20;99.90;;;;;;5074557;28;20070;-73
2023/05/23 00:40:49;;;;;;;43.10;28.60;;;18.10;99.90;;;;;;5074099;28;20032;-73
2023/05/23 00:43:15;;;;;;;42.15;28.05;;;18.20;99.90;;;;;;5074406;28;20516;-73
2023/05/23 00:45:40;;;;;;;39.78;26.75;;;18.20;99.90;;;;;;5056618;28;20048;-73
2023/05/23 00:48:07;;;;;;;36.67;27.55;;;18.10;99.90;;;;;;5056691;28;20044;-73
2023/05/23 00:50:35;;;;;;;37.42;25.02;;;18.10;99.90;;;;;;5074413;28;20036;-73
2023/05/23 00:53:01;;;;;;;36.22;25.60;;;18.00;99.90;;;;;;5074370;28;20511;-73
2023/05/23 00:55:28;;;;;;;32.70;25.48;;;18.00;99.90;;;;;;5074048;28;20103;-72
2023/05/23 00:57:55;;;;;;;36.53;25.15;;;18.00;99.90;;;;;;5056115;28;20028;-73
2023/05/23 01:00:23;;;;;;;36.90;25.02;;;18.00;99.90;;;;;;5074153;28;20048;-73
2023/05/23 01:02:52;;;;;;;37.38;24.35;;;18.10;99.90;;;;;;5070930;28;20082;-73
2023/05/23 01:05:21;;;;;;;32.90;22.05;;;18.00;99.90;;;;;;5074208;28;20029;-73
2023/05/23 01:07:48;;;;;;;32.42;21.85;;;18.00;99.90;;;;;;5072789;28;20037;-72
2023/05/23 01:10:16;;;;;;;30.55;22.13;;;17.90;99.90;;;;;;5073926;28;20457;-73
2023/05/23 01:12:57;;;;;;;28.92;21.65;;;18.00;99.90;;;;;;5072653;28;20024;-73
2023/05/23 01:15:35;;;;;;;26.15;19.38;;;18.00;99.90;;;;;;5074020;28;20071;-73
2023/05/23 01:18:05;;;;;;;30.73;20.40;;;18.00;99.90;;;;;;5073947;28;20032;-73
2023/05/23 01:20:40;;;;;;;26.83;19.42;;;18.00;99.90;;;;;;5073889;28;20017;-73
2023/05/23 01:23:43;;;;;;;25.75;18.30;;;17.90;99.90;;;;;;5073466;28;20021;-72
2023/05/23 01:26:51;;;;;;;26.00;18.60;;;18.00;99.90;;;;;;5055843;28;20091;-73
2023/05/23 01:29:37;;;;;;;23.50;17.63;;;18.00;99.90;;;;;;4991192;28;20034;-73
2023/05/23 01:32:06;;;;;;;18.90;15.75;;;17.90;99.90;;;;;;5047677;28;20504;-72
2023/05/23 01:34:35;;;;;;;23.33;16.48;;;17.80;99.90;;;;;;5052701;28;20484;-73
2023/05/23 01:37:01;;;;;;;23.17;17.77;;;17.80;99.90;;;;;;5053217;28;20477;-73
2023/05/23 01:39:26;;;;;;;23.20;17.73;;;17.70;99.90;;;;;;5063749;28;20059;-73
2023/05/23 01:41:53;;;;;;;26.52;18.00;;;17.80;99.90;;;;;;5071636;28;20021;-73
2023/05/23 01:44:20;;;;;;;23.88;18.75;;;17.80;99.90;;;;;;5073538;28;20039;-73
2023/05/23 01:46:47;;;;;;;22.05;16.35;;;17.60;99.90;;;;;;5073106;28;20100;-73
2023/05/23 01:49:14;;;;;;;24.75;16.58;;;17.80;99.90;;;;;;5073818;28;20056;-72
2023/05/23 01:51:40;;;;;;;21.92;16.30;;;17.70;99.90;;;;;;5073438;28;20064;-73
2023/05/23 01:54:07;;;;;;;28.50;20.17;;;17.60;99.90;;;;;;5058132;28;20024;-72
2023/05/23 01:56:33;;;;;;;26.77;18.48;;;17.50;99.90;;;;;;5052512;28;20373;-73
2023/05/23 01:59:00;;;;;;;25.30;18.73;;;17.60;99.90;;;;;;5052387;28;20116;-73
2023/05/23 02:01:26;;;;;;;30.38;20.20;;;17.70;99.90;;;;;;5052437;28;20435;-73
2023/05/23 02:03:52;;;;;;;26.75;19.13;;;17.60;99.90;;;;;;5052856;28;20060;-73
2023/05/23 02:06:18;;;;;;;28.63;19.80;;;17.70;99.90;;;;;;5053019;28;20024;-73
2023/05/23 02:08:43;;;;;;;32.10;18.90;;;17.80;99.90;;;;;;5034555;28;20036;-73
2023/05/23 02:11:09;;;;;;;29.75;19.95;;;17.80;99.90;;;;;;5052982;28;20025;-72
2023/05/23 02:13:35;;;;;;;33.58;19.27;;;17.70;99.90;;;;;;5027026;28;20041;-72
2023/05/23 02:16:01;;;;;;;29.08;19.42;;;17.60;99.90;;;;;;5037883;28;20433;-73
2023/05/23 02:18:28;;;;;;;30.52;20.20;;;17.60;99.90;;;;;;5052456;28;20029;-72
2023/05/23 02:20:57;;;;;;;34.30;20.85;;;17.50;99.90;;;;;;5050101;28;20544;-73
2023/05/23 02:23:23;;;;;;;34.97;22.13;;;17.60;99.90;;;;;;5050829;28;20370;-73
2023/05/23 02:25:49;;;;;;;36.88;23.25;;;17.50;99.90;;;;;;5054637;28;20529;-73
2023/05/23 02:28:15;;;;;;;34.53;23.02;;;17.60;99.90;;;;;;5040160;28;20036;-72
2023/05/23 02:30:41;;;;;;;36.47;24.35;;;17.50;99.90;;;;;;5059588;28;20028;-73
2023/05/23 02:33:07;;;;;;;40.65;23.42;;;17.60;99.90;;;;;;5042150;28;20029;-73
2023/05/23 02:35:33;;;;;;;34.38;22.13;;;17.60;99.90;;;;;;5053194;28;20025;-73
2023/05/23 02:37:59;;;;;;;34.28;21.35;;;17.60;99.90;;;;;;5062911;28;20058;-73
2023/05/23 02:40:25;;;;;;;32.28;21.73;;;17.60;99.90;;;;;;5050242;28;20029;-75
2023/05/23 02:42:50;;;;;;;34.60;22.42;;;17.60;99.90;;;;;;5058368;28;20069;-72
2023/05/23 02:45:17;;;;;;;41.55;21.73;;;17.60;99.90;;;;;;5056473;28;20012;-72
2023/05/23 02:47:43;;;;;;;33.05;22.73;;;17.50;99.90;;;;;;5052717;28;20025;-75
2023/05/23 02:50:09;;;;;;;40.65;23.70;;;17.60;99.90;;;;;;5054788;28;20033;-75
2023/05/23 02:52:35;;;;;;;34.38;21.67;;;17.60;99.90;;;;;;5051717;28;20228;-75
2023/05/23 02:55:01;;;;;;;36.55;20.50;;;17.60;99.90;;;;;;5049451;28;20033;-72
2023/05/23 02:57:26;;;;;;;33.10;21.33;;;17.60;99.90;;;;;;5052800;28;20486;-75
2023/05/23 02:59:52;;;;;;;29.38;19.83;;;17.60;99.90;;;;;;5049666;28;20036;-73
2023/05/23 03:02:18;;;;;;;34.25;20.88;;;17.50;99.90;;;;;;5047000;28;20032;-74
2023/05/23 03:04:43;;;;;;;33.17;19.40;;;17.40;99.90;;;;;;5035702;28;20377;-74
2023/05/23 03:07:11;;;;;;;34.88;21.30;;;17.50;99.90;;;;;;5040420;28;20048;-75
2023/05/23 03:09:36;;;;;;;33.33;19.58;;;17.60;99.90;;;;;;5046910;28;20037;-74
2023/05/23 03:12:03;;;;;;;30.77;19.98;;;17.50;99.90;;;;;;5051420;28;20497;-74
2023/05/23 03:14:28;;;;;;;31.35;18.88;;;17.50;99.90;;;;;;5049982;28;20041;-74
2023/05/23 03:16:54;;;;;;;33.72;18.70;;;17.40;99.90;;;;;;5047497;28;20380;-73
2023/05/23 03:19:20;;;;;;;33.22;18.15;;;17.40;99.90;;;;;;5046475;28;20472;-73
2023/05/23 03:21:45;;;;;;;35.03;21.75;;;17.50;99.90;;;;;;5051353;28;20021;-74
2023/05/23 03:24:11;;;;;;;31.73;19.83;;;17.40;99.90;;;;;;5045903;28;20107;-74
2023/05/23 03:26:37;;;;;;;29.83;18.08;;;17.40;99.90;;;;;;5056197;28;20139;-73
2023/05/23 03:29:02;;;;;;;34.17;19.23;;;17.40;99.90;;;;;;5037063;28;20059;-73
2023/05/23 03:31:29;;;;;;;29.38;18.23;;;17.50;99.90;;;;;;5056647;28;20032;-73
2023/05/23 03:33:54;;;;;;;34.97;17.77;;;17.30;99.90;;;;;;5046353;28;20024;-74
2023/05/23 03:36:20;;;;;;;26.88;17.05;;;17.30;99.90;;;;;;5033306;28;20033;-73
2023/05/23 03:38:46;;;;;;;27.65;16.92;;;17.30;99.90;;;;;;5052966;28;20025;-74
2023/05/23 03:41:12;;;;;;;26.25;16.92;;;17.40;99.90;;;;;;5046219;28;20028;-73
2023/05/23 03:43:37;;;;;;;23.52;15.55;;;17.30;99.90;;;;;;5058573;28;20033;-73
2023/05/23 03:46:03;;;;;;;25.42;16.17;;;17.40;99.90;;;;;;5044801;28;20033;-73
2023/05/23 03:48:29;;;;;;;23.98;16.17;;;17.30;99.90;;;;;;5053738;28;20489;-74
2023/05/23 03:50:55;;;;;;;19.63;13.82;;;17.20;99.90;;;;;;5060115;28;20469;-74
2023/05/23 03:53:22;;;;;;;20.65;12.80;;;17.20;99.90;;;;;;5054041;28;20028;-74
2023/05/23 03:55:49;;;;;;;22.40;12.35;;;17.20;99.90;;;;;;5058569;28;20042;-73
2023/05/23 03:58:15;;;;;;;19.30;12.13;;;17.20;99.90;;;;;;5059469;28;20040;-73
2023/05/23 04:00:40;;;;;;;21.20;11.82;;;17.20;99.90;;;;;;5060127;28;20088;-73
2023/05/23 04:03:07;;;;;;;17.08;11.45;;;17.20;99.90;;;;;;5060064;28;20017;-74
2023/05/23 04:05:33;;;;;;;17.25;12.02;;;17.20;99.90;;;;;;5053185;28;20056;-74
2023/05/23 04:08:01;;;;;;;17.67;11.00;;;17.20;99.90;;;;;;5056695;28;20106;-74
2023/05/23 04:10:28;;;;;;;14.65;9.70;;;17.10;99.90;;;;;;5052891;28;20029;-74
2023/05/23 04:12:53;;;;;;;16.83;9.27;;;17.10;99.90;;;;;;5053804;28;20099;-74
2023/05/23 04:15:20;;;;;;;10.32;8.05;;;17.20;99.90;;;;;;5046154;28;20060;-74
2023/05/23 04:17:46;;;;;;;19.25;10.30;;;17.30;99.90;;;;;;5063213;28;20079;-74
2023/05/23 04:20:12;;;;;;;16.25;10.80;;;17.30;99.90;;;;;;5051169;28;20403;-73
2023/05/23 04:22:38;;;;;;;13.43;10.15;;;17.40;99.90;;;;;;5062457;28;20028;-73
2023/05/23 04:25:05;;;;;;;11.82;9.40;;;17.30;99.90;;;;;;5034374;28;20357;-73
2023/05/23 04:27:30;;;;;;;14.65;9.82;;;17.30;99.90;;;;;;5059735;28;20021;-74
2023/05/23 04:29:57;;;;;;;17.02;10.05;;;17.30;99.90;;;;;;5055530;28;20539;-74
2023/05/23 04:32:24;;;;;;;15.70;10.30;;;17.30;99.90;;;;;;5052990;28;20375;-73
2023/05/23 04:34:50;;;;;;;18.65;12.02;;;17.20;99.90;;;;;;5038627;28;20025;-73
2023/05/23 04:37:20;;;;;;;23.50;14.20;;;17.20;99.90;;;;;;5048395;28;20016;-73
2023/05/23 04:39:47;;;;;;;22.10;13.98;;;17.30;99.90;;;;;;5057219;28;20104;-74
2023/05/23 04:42:13;;;;;;;25.17;14.23;;;17.30;99.90;;;;;;5061850;28;20028;-74
2023/05/23 04:44:40;;;;;;;22.60;14.85;;;17.30;99.90;;;;;;5048653;28;20597;-74
2023/05/23 04:47:07;;;;;;;24.05;15.23;;;17.30;99.90;;;;;;5051988;28;20028;-74
2023/05/23 04:49:36;;;;;;;26.85;14.30;;;17.30;99.90;;;;;;5053364;28;20086;-74
2023/05/23 04:52:03;;;;;;;26.08;13.07;;;17.30;99.90;;;;;;5051147;28;20024;-74
2023/05/23 04:54:30;;;;;;;20.73;14.15;;;17.40;99.90;;;;;;5051877;28;20032;-74
2023/05/23 04:56:56;;;;;;;20.58;13.48;;;17.40;99.90;;;;;;5064412;28;20021;-74
2023/05/23 04:59:21;;;;;;;21.02;12.68;;;17.40;99.90;;;;;;5044745;28;20090;-74
2023/05/23 05:01:47;;;;;;;20.98;11.68;;;17.40;99.90;;;;;;5051350;28;20410;-73
2023/05/23 05:04:14;;;;;;;20.58;12.30;;;17.40;99.90;;;;;;5054204;28;20021;-74
2023/05/23 05:06:40;;;;;;;21.15;12.80;;;17.40;99.90;;;;;;5055281;28;20017;-74
2023/05/23 05:09:08;;;;;;;17.42;12.02;;;17.40;99.90;;;;;;5057012;28;20044;-74
2023/05/23 05:11:35;;;;;;;18.27;12.05;;;17.40;99.90;;;;;;5040296;28;20021;-74
2023/05/23 05:14:01;;;;;;;18.60;11.45;;;17.40;99.90;;;;;;5059198;28;20044;-74
2023/05/23 05:16:26;;;;;;;25.17;11.68;;;17.40;99.90;;;;;;5053832;28;20079;-74
2023/05/23 05:18:52;;;;;;;27.08;11.65;;;17.40;99.90;;;;;;5055458;28;20025;-74
2023/05/23 05:21:18;;;;;;;21.05;12.77;;;17.40;99.90;;;;;;5059737;28;20055;-74
2023/05/23 05:23:43;;;;;;;20.73;11.68;;;17.40;99.90;;;;;;5063274;28;20037;-75
2023/05/23 05:26:09;;;;;;;17.10;11.25;;;17.30;99.90;;;;;;5060124;28;20468;-74
2023/05/23 05:28:35;;;;;;;17.38;11.88;;;17.20;99.90;;;;;;5043977;28;20036;-74
2023/05/23 05:31:03;;;;;;;18.63;10.98;;;17.30;99.90;;;;;;5058413;28;20025;-75
2023/05/23 05:33:34;;;;;;;18.13;10.75;;;17.30;99.90;;;;;;5050988;28;20112;-74
2023/05/23 05:36:05;;;;;;;20.20;11.10;;;17.30;99.90;;;;;;5048766;28;20138;-74
2023/05/23 05:38:31;;;;;;;17.92;11.13;;;17.20;99.90;;;;;;5048779;28;20043;-74
2023/05/23 05:40:57;;;;;;;16.85;9.85;;;17.20;99.90;;;;;;5050608;28;20465;-73
2023/05/23 05:43:22;;;;;;;22.58;11.23;;;17.20;99.90;;;;;;5052536;28;20025;-74
2023/05/23 05:45:48;;;;;;;24.08;10.90;;;17.20;99.90;;;;;;5041876;28;20088;-74
2023/05/23 05:48:15;;;;;;;24.85;13.15;;;17.20;99.90;;;;;;5042280;28;20123;-72
2023/05/23 05:50:44;;;;;;;22.38;11.95;;;17.20;99.90;;;;;;5051109;28;20024;-74
2023/05/23 05:53:10;;;;;;;24.75;13.07;;;17.10;99.90;;;;;;5064107;28;20024;-75
2023/05/23 05:55:36;;;;;;;22.77;12.27;;;17.10;99.90;;;;;;5035691;28;20457;-74
2023/05/23 05:58:02;;;;;;;32.63;13.07;;;17.10;99.90;;;;;;5051505;28;20013;-74
2023/05/23 06:00:28;;;;;;;29.80;14.30;;;17.20;99.90;;;;;;5047143;28;20035;-73
2023/05/23 06:02:56;;;;;;;22.38;12.35;;;17.00;99.90;;;;;;5037047;28;20041;-74
2023/05/23 06:05:22;;;;;;;22.60;12.35;;;17.00;99.90;;;;;;5051481;28;20090;-74
2023/05/23 06:07:49;;;;;;;24.10;13.23;;;16.90;99.90;;;;;;5050184;28;20067;-74
2023/05/23 06:10:15;;;;;;;24.13;12.52;;;16.90;99.90;;;;;;5032064;28;20037;-74
2023/05/23 06:12:40;;;;;;;32.45;13.82;;;16.90;99.90;;;;;;5051697;28;20021;-73
2023/05/23 06:15:07;;;;;;;28.23;14.60;;;17.00;99.90;;;;;;5038658;28;20389;-73
2023/05/23 06:17:32;;;;;;;30.77;16.17;;;16.90;99.90;;;;;;5052015;28;20017;-73
2023/05/23 06:19:58;;;;;;;40.75;17.38;;;17.00;99.90;;;;;;5049467;28;20457;-73
2023/05/23 06:22:24;;;;;;;37.40;15.73;;;17.00;99.90;;;;;;5053862;28;20464;-73
2023/05/23 06:24:49;;;;;;;33.97;15.35;;;17.00;99.90;;;;;;5034500;28;20027;-73
2023/05/23 06:27:15;;;;;;;32.78;14.77;;;16.80;99.90;;;;;;5054351;28;20094;-73
2023/05/23 06:29:41;;;;;;;30.27;15.20;;;16.70;99.90;;;;;;5058499;28;20469;-74
2023/05/23 06:32:07;;;;;;;40.67;14.48;;;16.70;99.90;;;;;;5051699;28;20047;-73
2023/05/23 06:34:32;;;;;;;33.53;13.82;;;16.80;99.90;;;;;;5049523;28;20088;-73
2023/05/23 06:36:58;;;;;;;37.63;13.57;;;16.80;99.90;;;;;;5051105;28;20102;-73
2023/05/23 06:39:24;;;;;;;35.53;13.55;;;16.70;99.90;;;;;;5034080;28;20025;-73
2023/05/23 06:41:50;;;;;;;26.35;11.85;;;16.60;99.90;;;;;;5030725;28;20031;-74
2023/05/23 06:44:16;;;;;;;33.20;12.57;;;16.60;99.90;;;;;;5051828;28;20028;-74
2023/05/23 06:46:45;;;;;;;36.13;12.98;;;16.50;99.90;;;;;;5037748;28;20039;-73
2023/05/23 06:49:11;;;;;;;30.25;11.63;;;16.60;99.90;;;;;;5058114;28;20385;-74
2023/05/23 06:51:37;;;;;;;35.40;10.95;;;16.60;99.90;;;;;;5059057;28;20021;-73
2023/05/23 06:54:03;;;;;;;31.02;12.15;;;16.50;99.90;;;;;;5050349;28;20405;-73
2023/05/23 06:56:28;;;;;;;28.92;10.82;;;16.50;99.90;;;;;;5052542;28;20044;-73
2023/05/23 06:58:54;;;;;;;24.88;11.55;;;16.50;99.90;;;;;;5049665;28;20515;-73
2023/05/23 07:01:20;;;;;;;24.10;10.50;;;16.50;99.90;;;;;;5049367;28;20413;-73
2023/05/23 07:03:45;;;;;;;25.92;10.93;;;16.50;99.90;;;;;;5054723;28;20029;-74
2023/05/23 07:06:11;;;;;;;21.50;10.95;;;16.30;99.90;;;;;;5054886;28;20744;-74
2023/05/23 07:08:38;;;;;;;26.55;10.43;;;16.30;99.90;;;;;;5031357;28;20473;-73
2023/05/23 07:11:05;;;;;;;27.13;9.65;;;16.40;99.90;;;;;;5053422;28;20025;-74
2023/05/23 07:13:31;;;;;;;24.63;10.68;;;16.30;99.90;;;;;;5057541;28;20021;-74
2023/05/23 07:15:57;;;;;;;24.33;9.75;;;16.20;99.90;;;;;;5057596;28;20128;-74
2023/05/23 07:18:23;;;;;;;20.48;8.98;;;16.30;99.90;;;;;;5051003;28;20104;-74
2023/05/23 07:20:49;;;;;;;17.52;7.95;;;16.30;99.90;;;;;;5053321;28;20024;-74
2023/05/23 07:23:15;;;;;;;15.45;8.00;;;16.20;99.90;;;;;;5054627;28;20512;-74
2023/05/23 07:25:41;;;;;;;19.85;8.65;;;16.20;99.90;;;;;;5061999;28;20056;-74
2023/05/23 07:28:08;;;;;;;17.38;7.47;;;16.20;99.90;;;;;;5039729;28;20389;-74
2023/05/23 07:30:34;;;;;;;15.02;7.63;;;16.30;99.90;;;;;;5057724;28;20025;-74
2023/05/23 07:32:59;;;;;;;19.08;7.65;;;16.40;99.90;;;;;;5058440;28;20021;-74
2023/05/23 07:35:25;;;;;;;20.92;7.90;;;16.40;99.90;;;;;;5053560;28;20025;-74
2023/05/23 07:37:52;;;;;;;14.38;6.75;;;16.30;99.90;;;;;;5054599;28;20021;-74
2023/05/23 07:40:18;;;;;;;11.52;6.57;;;16.30;99.90;;;;;;5040766;28;20017;-74
2023/05/23 07:42:44;;;;;;;13.98;7.18;;;16.30;99.90;;;;;;5054793;28;20051;-74
2023/05/23 07:45:10;;;;;;;16.45;5.97;;;16.20;99.90;;;;;;5057002;28;20024;-74
2023/05/23 07:47:36;;;;;;;16.42;6.78;;;16.30;99.90;;;;;;5051944;28;20020;-74
2023/05/23 07:50:02;;;;;;;13.18;6.35;;;16.30;99.90;;;;;;5042891;28;20025;-74
2023/05/23 07:52:31;;;;;;;12.25;6.35;;;16.30;99.90;;;;;;5068019;28;20427;-74
2023/05/23 07:54:57;;;;;;;10.82;5.70;;;16.40;99.90;;;;;;5060863;28;20029;-74
2023/05/23 07:57:23;;;;;;;14.15;6.68;;;16.40;99.90;;;;;;5056314;28;20100;-74
2023/05/23 07:59:50;;;;;;;13.50;6.68;;;16.40;99.90;;;;;;5057934;28;20454;-72
2023/05/23 08:02:16;;;;;;;21.08;7.80;;;16.50;99.90;;;;;;5051825;28;20040;-74
2023/05/23 08:04:42;;;;;;;14.60;7.13;;;16.50;99.90;;;;;;5057598;28;20025;-72
2023/05/23 08:07:08;;;;;;;16.35;7.10;;;16.40;99.90;;;;;;5057462;28;20021;-74
2023/05/23 08:09:34;;;;;;;17.40;6.93;;;16.40;99.90;;;;;;5058200;28;20777;-74
2023/05/23 08:12:00;;;;;;;17.88;6.80;;;16.50;99.90;;;;;;5054038;28;20083;-74
2023/05/23 08:14:26;;;;;;;13.48;6.18;;;16.50;99.90;;;;;;5047966;28;20057;-72
2023/05/23 08:16:52;;;;;;;16.88;6.47;;;16.40;99.90;;;;;;5054073;28;20021;-74
2023/05/23 08:19:17;;;;;;;18.50;5.95;;;16.40;99.90;;;;;;5054527;28;20025;-75
2023/05/23 08:21:44;;;;;;;12.43;5.57;;;16.40;99.90;;;;;;5052451;28;20029;-73
2023/05/23 08:24:11;;;;;;;13.88;6.18;;;16.40;99.90;;;;;;5053549;28;20037;-74
2023/05/23 08:26:38;;;;;;;10.25;5.32;;;16.40;99.90;;;;;;5058536;28;20469;-73
2023/05/23 08:29:03;;;;;;;10.52;5.35;;;16.50;99.90;;;;;;5054076;28;20511;-75
2023/05/23 08:31:30;;;;;;;12.63;5.40;;;16.50;99.90;;;;;;5051214;28;20033;-74
2023/05/23 08:33:56;;;;;;;11.23;5.38;;;16.60;99.90;;;;;;5037843;28;20021;-73
2023/05/23 08:36:22;;;;;;;15.02;6.28;;;16.70;99.90;;;;;;5054563;28;20040;-73
2023/05/23 08:38:50;;;;;;;14.63;5.90;;;16.90;99.90;;;;;;5051227;28;20056;-73
2023/05/23 08:41:18;;;;;;;14.20;6.30;;;16.90;99.90;;;;;;5064225;28;20052;-74
2023/05/23 08:43:44;;;;;;;13.38;6.32;;;17.00;99.90;;;;;;5055329;28;20106;-75
2023/05/23 08:46:11;;;;;;;16.98;6.53;;;17.20;99.90;;;;;;5040571;28;20432;-74
2023/05/23 08:48:38;;;;;;;11.60;5.97;;;17.40;99.90;;;;;;5043254;28;20091;-75
2023/05/23 08:51:05;;;;;;;21.02;7.65;;;17.30;99.90;;;;;;5051856;28;20044;-75
2023/05/23 08:53:34;;;;;;;23.92;8.55;;;17.40;99.90;;;;;;5053456;28;20033;-75
2023/05/23 08:56:01;;;;;;;20.10;7.45;;;17.20;99.90;;;;;;5050223;28;20054;-76
2023/05/23 08:58:30;;;;;;;13.60;6.95;;;17.40;99.90;;;;;;5054176;28;20024;-76
2023/05/23 09:00:58;;;;;;;12.88;6.20;;;17.30;99.90;;;;;;5060684;28;20074;-75
2023/05/23 09:03:28;;;;;;;13.35;6.07;;;17.30;99.90;;;;;;5060112;28;20025;-76
2023/05/23 09:05:55;;;;;;;16.10;6.50;;;17.30;99.90;;;;;;5040426;28;20065;-75
2023/05/23 09:08:23;;;;;;;12.43;6.78;;;17.20;99.90;;;;;;5041649;28;20045;-75
2023/05/23 09:10:49;;;;;;;14.18;6.35;;;17.30;99.90;;;;;;5054543;28;20070;-76
2023/05/23 09:13:27;;;;;;;15.15;5.78;;;17.30;99.90;;;;;;5039548;28;20032;-75
2023/05/23 09:16:00;;;;;;;11.95;6.10;;;17.30;99.90;;;;;;5050295;28;20049;-76
2023/05/23 09:18:26;;;;;;;14.77;6.57;;;17.30;99.90;;;;;;5037243;28;20381;-75
2023/05/23 09:20:52;;;;;;;14.98;5.80;;;17.30;99.90;;;;;;5052200;28;20100;-75
2023/05/23 09:23:18;;;;;;;15.05;6.72;;;17.20;99.90;;;;;;5051723;28;20025;-75
2023/05/23 09:25:47;;;;;;;14.93;6.07;;;17.30;99.90;;;;;;5051879;28;20040;-75
2023/05/23 09:28:13;;;;;;;9.27;4.78;;;17.10;99.90;;;;;;5037322;28;20432;-75
2023/05/23 09:30:39;;;;;;;23.77;4.80;;;17.20;99.90;;;;;;5043328;28;20021;-75
2023/05/23 09:33:05;;;;;;;21.65;5.40;;;17.20;99.90;;;;;;5039391;28;20020;-75
2023/05/23 09:35:31;;;;;;;13.85;4.72;;;17.20;99.90;;;;;;5059551;28;20028;-75
2023/05/23 09:38:00;;;;;;;10.07;3.85;;;17.20;99.90;;;;;;5058329;28;20029;-75
2023/05/23 09:40:33;;;;;;;23.58;6.10;;;17.20;99.90;;;;;;5052006;28;20032;-75
2023/05/23 09:43:03;;;;;;;12.68;4.03;;;17.20;99.90;;;;;;5055423;28;20036;-75
2023/05/23 09:45:30;;;;;;;9.00;4.03;;;17.10;99.90;;;;;;5056087;28;20090;-75
2023/05/23 09:47:56;;;;;;;9.60;3.88;;;16.90;99.90;;;;;;5058889;28;20035;-75
2023/05/23 09:50:22;;;;;;;47.70;8.32;;;17.00;99.90;;;;;;5060679;28;20029;-75
2023/05/23 09:52:49;;;;;;;10.30;4.50;;;17.10;99.90;;;;;;5040668;28;20396;-75
2023/05/23 09:55:15;;;;;;;13.90;4.90;;;17.10;99.90;;;;;;5051483;28;20534;-75
2023/05/23 09:57:42;;;;;;;9.60;5.07;;;17.20;99.90;;;;;;5057141;28;20029;-75
2023/05/23 10:00:10;;;;;;;14.93;4.90;;;17.20;99.90;;;;;;5059270;28;20047;-75
2023/05/23 10:02:38;;;;;;;9.43;4.18;;;17.20;99.90;;;;;;5051859;28;20025;-75
2023/05/23 10:05:07;;;;;;;11.35;4.50;;;17.40;99.90;;;;;;5051932;28;20047;-75
2023/05/23 10:07:34;;;;;;;13.32;4.38;;;17.60;99.90;;;;;;5055861;28;20465;-75
2023/05/23 10:10:03;;;;;;;10.25;4.80;;;17.70;99.90;;;;;;5057483;28;20037;-75
2023/05/23 10:12:32;;;;;;;16.73;4.90;;;17.50;99.90;;;;;;5056044;28;20041;-75
2023/05/23 10:15:06;;;;;;;13.65;4.63;;;17.50;99.90;;;;;;5054475;28;20048;-75
2023/05/23 10:18:02;;;;;;;14.65;4.70;;;17.50;99.90;;;;;;5055427;28;20021;-75
2023/05/23 10:20:32;;;;;;;15.05;4.47;;;17.70;99.90;;;;;;5053515;28;20096;-75
2023/05/23 10:23:04;;;;;;;11.55;4.57;;;17.80;99.90;;;;;;5056992;28;20082;-76
2023/05/23 10:25:30;;;;;;;17.27;4.35;;;17.80;99.90;;;;;;5055924;28;20111;-73
2023/05/23 10:27:57;;;;;;;11.60;4.18;;;18.00;99.90;;;;;;5053209;28;20033;-74
2023/05/23 10:30:27;;;;;;;10.48;3.78;;;18.20;99.90;;;;;;5052513;28;20032;-76
2023/05/23 10:32:56;;;;;;;13.45;3.58;;;18.40;99.90;;;;;;5035313;28;20075;-74
2023/05/23 10:35:39;;;;;;;11.45;3.60;;;18.50;99.90;;;;;;5052616;28;20470;-75
2023/05/23 10:38:17;;;;;;;10.38;3.33;;;18.50;99.90;;;;;;5035337;28;20017;-74
2023/05/23 10:40:54;;;;;;;13.50;3.60;;;18.40;99.90;;;;;;5055944;28;20620;-76
2023/05/23 10:43:39;;;;;;;11.88;3.10;;;18.40;99.90;;;;;;5055204;28;20104;-76
2023/05/23 10:46:07;;;;;;;12.05;3.20;;;18.50;99.90;;;;;;5057426;28;20028;-76
2023/05/23 10:48:56;;;;;;;11.43;3.45;;;18.60;99.90;;;;;;5057596;28;20043;-75
2023/05/23 10:51:21;;;;;;;7.50;3.05;;;18.60;99.90;;;;;;5053616;28;20025;-73
2023/05/23 10:53:53;;;;;;;14.23;2.95;;;18.80;99.90;;;;;;5051413;28;20450;-75
2023/05/23 10:56:22;;;;;;;15.13;4.18;;;18.80;99.90;;;;;;5053131;28;20067;-75
2023/05/23 10:58:56;;;;;;;17.98;3.80;;;18.70;99.90;;;;;;5052039;28;20724;-74
2023/05/23 11:01:22;;;;;;;12.13;3.25;;;18.70;99.90;;;;;;5037399;28;20540;-75
2023/05/23 11:03:50;;;;;;;13.48;3.92;;;19.00;99.90;;;;;;5051447;28;20373;-82
2023/05/23 11:06:37;;;;;;;13.07;3.60;;;18.90;99.90;;;;;;5058678;28;20063;-79
2023/05/23 11:09:04;;;;;;;12.13;3.13;;;19.20;99.90;;;;;;5054606;28;20150;-78
2023/05/23 11:11:52;;;;;;;11.48;3.38;;;19.20;99.90;;;;;;5053902;28;20120;-81
2023/05/23 11:14:39;;;;;;;18.48;3.38;;;19.30;99.90;;;;;;5057128;28;20033;-76
2023/05/23 11:17:28;;;;;;;18.33;3.95;;;19.30;99.90;;;;;;5049054;28;20025;-76
2023/05/23 11:20:09;;;;;;;10.93;3.85;;;19.30;99.90;;;;;;5041086;28;20033;-81
2023/05/23 11:22:35;;;;;;;16.30;3.55;;;19.20;99.90;;;;;;5033902;28;20029;-79
2023/05/23 11:25:06;;;;;;;8.80;3.28;;;19.40;99.90;;;;;;5049235;28;20063;-79
2023/05/23 11:27:40;;;;;;;12.88;4.18;;;19.50;99.90;;;;;;5037430;28;20108;-76
2023/05/23 11:30:08;;;;;;;17.02;3.88;;;19.70;99.90;;;;;;5048948;28;20048;-76
2023/05/23 11:32:35;;;;;;;15.02;3.20;;;19.60;99.90;;;;;;5052985;28;20043;-74
2023/05/23 11:35:06;;;;;;;14.98;3.95;;;19.90;99.90;;;;;;5049315;28;20500;-73
2023/05/23 11:37:32;;;;;;;16.33;4.53;;;19.80;99.90;;;;;;5029176;28;20025;-74
2023/05/23 11:39:59;;;;;;;11.82;3.53;;;19.80;99.90;;;;;;5030425;28;20020;-75
2023/05/23 11:42:24;;;;;;;15.45;4.00;;;19.80;99.90;;;;;;5049997;28;20029;-75
2023/05/23 11:44:51;;;;;;;12.63;3.70;;;19.80;99.90;;;;;;5033708;28;20390;-75
2023/05/23 11:47:17;;;;;;;11.63;3.80;;;19.70;99.90;;;;;;5038005;28;20028;-74
2023/05/23 11:49:48;;;;;;;11.38;3.22;;;19.70;99.90;;;;;;5048883;28;20068;-74
2023/05/23 11:52:14;;;;;;;15.45;3.38;;;19.90;99.90;;;;;;5050770;28;20029;-74
2023/05/23 11:54:43;;;;;;;17.52;3.78;;;20.00;99.90;;;;;;5049459;28;20021;-74
2023/05/23 11:57:10;;;;;;;12.07;4.32;;;20.00;99.90;;;;;;5033504;28;20527;-74
2023/05/23 11:59:36;;;;;;;14.70;4.03;;;19.90;99.90;;;;;;5056425;28;20465;-74
2023/05/23 12:02:06;;;;;;;9.45;3.65;;;19.90;99.90;;;;;;5057252;28;20017;-73
2023/05/23 12:04:35;;;;;;;13.48;3.83;;;20.00;99.90;;;;;;5058918;28;20021;-74
2023/05/23 12:07:05;;;;;;;12.38;3.17;;;20.10;99.90;;;;;;5056759;28;20013;-75
2023/05/23 12:09:31;;;;;;;12.02;3.65;;;20.10;99.90;;;;;;5055774;28;20541;-75
2023/05/23 12:11:56;;;;;;;10.52;3.30;;;20.20;99.90;;;;;;5038719;28;20706;-75
2023/05/23 12:14:22;;;;;;;13.70;3.92;;;20.30;99.90;;;;;;5043042;28;20028;-75
2023/05/23 12:16:48;;;;;;;11.52;3.65;;;20.50;99.90;;;;;;5054531;28;20028;-74
2023/05/23 12:19:16;;;;;;;14.15;3.80;;;20.30;99.90;;;;;;5044163;28;20016;-74
2023/05/23 12:21:47;;;;;;;7.30;2.97;;;20.50;99.90;;;;;;5039796;28;20467;-74
2023/05/23 12:24:14;;;;;;;20.92;4.10;;;20.60;99.90;;;;;;5055357;28;20147;-74
2023/05/23 12:26:54;;;;;;;10.27;3.75;;;20.50;99.90;;;;;;5057343;28;20052;-74
2023/05/23 12:29:40;;;;;;;12.00;4.20;;;20.30;99.90;;;;;;5053220;28;20485;-74
2023/05/23 12:32:06;;;;;;;14.57;2.97;;;20.10;99.90;;;;;;5053136;28;20565;-74
2023/05/23 12:34:32;;;;;;;14.68;3.67;;;20.10;99.90;;;;;;5059144;28;20017;-77